Time;durP1;ratioP1;P1;durP2;ratioP2;P2;SDS_P1;SDS_P2;PMS_P1;PMS_P2;Temp;Humidity;BMP_temperature;BMP_pressure;BME280_temperature;BME280_humidity;BME280_pressure;Samples;Min_cycle;Max_cycle;Signal;HPM_P1;HPM_P2
2021/12/12 00:02:21;;;;;;;;;;;;;;;7.51;92.26;100816.03;1766356;81;20210;-63
2021/12/12 00:04:47;;;;;;;;;;;;;;;7.50;92.12;100823.36;1771204;80;20265;-62
2021/12/12 00:07:20;;;;;;;;;;;;;;;7.49;92.09;100818.92;1772752;81;20552;-64
2021/12/12 00:09:51;;;;;;;;;;;;;;;7.51;92.01;100824.21;1773711;81;20191;-63
2021/12/12 00:12:25;;;;;;;;;;;;;;;7.49;91.87;100837.16;1773697;81;20247;-63
2021/12/12 00:14:53;;;;;;;;;;;;;;;7.48;91.63;100824.55;1790843;79;20481;-63
2021/12/12 00:17:23;;;;;;;;;;;;;;;7.48;91.52;100830.00;1819225;79;20149;-64
2021/12/12 00:19:52;;;;;;;;;;;;;;;7.48;91.55;100846.36;1819315;79;20240;-63
2021/12/12 00:22:23;;;;;;;;;;;;;;;7.48;91.52;100840.91;1819253;79;20216;-62
2021/12/12 00:24:51;;;;;;;;;;;;;;;7.49;91.62;100855.73;1798192;79;20621;-65
2021/12/12 00:27:21;;;;;;;;;;;;;;;7.49;91.67;100863.06;1774126;79;20246;-64
2021/12/12 00:29:50;;;;;;;;;;;;;;;7.50;91.74;100860.68;1788507;79;20207;-63
2021/12/12 00:32:18;;;;;;;;;;;;;;;7.51;91.80;100856.42;1787167;80;20200;-63
2021/12/12 00:34:49;;;;;;;;;;;;;;;7.54;91.87;100856.59;1787148;80;20211;-63
2021/12/12 00:37:18;;;;;;;;;;;;;;;7.55;91.92;100856.94;1787178;80;20160;-63
2021/12/12 00:39:54;;;;;;;;;;;;;;;7.55;91.97;100856.43;1787130;80;20180;-63
2021/12/12 00:42:24;;;;;;;;;;;;;;;7.56;92.08;100850.47;1787165;80;20212;-63
2021/12/12 00:44:54;;;;;;;;;;;;;;;7.57;92.28;100856.27;1787176;80;20167;-63
2021/12/12 00:47:23;;;;;;;;;;;;;;;7.57;92.42;100849.45;1787458;80;20152;-63
2021/12/12 00:49:54;;;;;;;;;;;;;;;7.57;92.54;100859.84;1783984;80;20178;-63
2021/12/12 00:52:23;;;;;;;;;;;;;;;7.58;92.72;100860.70;1747518;82;20514;-63
2021/12/12 00:54:51;;;;;;;;;;;;;;;7.58;92.70;100866.16;1758754;81;20180;-64
2021/12/12 00:57:20;;;;;;;;;;;;;;;7.57;92.85;100863.08;1758649;82;20220;-64
2021/12/12 00:59:48;;;;;;;;;;;;;;;7.57;92.94;100853.53;1758674;82;20313;-64
2021/12/12 01:02:21;;;;;;;;;;;;;;;7.57;93.06;100857.12;1763437;81;20543;-63
2021/12/12 01:04:53;;;;;;;;;;;;;;;7.57;93.19;100860.36;1779161;81;20187;-64
2021/12/12 01:07:24;;;;;;;;;;;;;;;7.57;93.30;100865.81;1779143;80;20532;-64
2021/12/12 01:09:57;;;;;;;;;;;;;;;7.58;93.42;100862.91;1778984;80;20191;-64
2021/12/12 01:12:29;;;;;;;;;;;;;;;7.60;93.49;100865.47;1779202;81;20465;-68
2021/12/12 01:15:02;;;;;;;;;;;;;;;7.62;93.53;100870.25;1779100;81;20510;-63
2021/12/12 01:17:37;;;;;;;;;;;;;;;7.58;93.44;100871.09;1760923;80;20477;-63
2021/12/12 01:20:14;;;;;;;;;;;;;;;7.58;93.61;100873.83;1811125;79;20200;-63
2021/12/12 01:22:43;;;;;;;;;;;;;;;7.57;93.53;100879.44;1783928;79;20151;-64
2021/12/12 01:25:24;;;;;;;;;;;;;;;7.55;93.62;100875.52;1781974;80;20147;-63
2021/12/12 01:27:52;;;;;;;;;;;;;;;7.55;93.50;100877.39;1739117;82;20548;-65
2021/12/12 01:30:22;;;;;;;;;;;;;;;7.53;93.47;100871.25;1739250;81;20595;-63
2021/12/12 01:32:51;;;;;;;;;;;;;;;7.49;93.40;100876.19;1739235;82;20264;-63
2021/12/12 01:35:20;;;;;;;;;;;;;;;7.48;93.42;100874.98;1740328;81;20244;-64
2021/12/12 01:40:42;;;;;;;;;;;;;;;7.40;93.26;100887.23;1718256;83;20478;-63
2021/12/12 01:43:21;;;;;;;;;;;;;;;7.38;93.29;100892.00;1718605;83;20188;-64
2021/12/12 01:46:01;;;;;;;;;;;;;;;7.34;93.19;100887.89;1718795;83;20156;-63
2021/12/12 01:48:44;;;;;;;;;;;;;;;7.31;93.17;100893.16;1718715;83;20275;-64
2021/12/12 01:51:14;;;;;;;;;;;;;;;7.32;93.27;100896.23;1718472;83;20183;-63
2021/12/12 01:53:45;;;;;;;;;;;;;;;7.32;93.34;100901.69;1721369;81;20178;-62
2021/12/12 01:56:18;;;;;;;;;;;;;;;7.33;93.38;100905.27;1757226;82;20511;-64
2021/12/12 01:58:49;;;;;;;;;;;;;;;7.34;93.41;100908.34;1757052;82;20217;-62
2021/12/12 02:01:24;;;;;;;;;;;;;;;7.31;93.29;100907.65;1806895;79;20196;-63
2021/12/12 02:03:57;;;;;;;;;;;;;;;7.26;93.24;100903.20;1811280;79;20187;-64
2021/12/12 02:06:25;;;;;;;;;;;;;;;7.27;93.33;100891.28;1811711;79;20176;-64
2021/12/12 02:08:54;;;;;;;;;;;;;;;7.25;93.30;100881.05;1805910;79;20148;-64
2021/12/12 02:11:25;;;;;;;;;;;;;;;7.25;93.31;100887.86;1781837;80;20219;-64
2021/12/12 02:13:56;;;;;;;;;;;;;;;7.26;93.34;100902.34;1781723;81;20222;-65
2021/12/12 02:16:25;;;;;;;;;;;;;;;7.26;93.37;100910.02;1781613;80;20160;-64
2021/12/12 02:18:56;;;;;;;;;;;;;;;7.26;93.35;100911.88;1781681;81;20215;-64
2021/12/12 02:21:31;;;;;;;;;;;;;;;7.26;93.31;100915.97;1781722;81;20187;-64
2021/12/12 02:35:13;;;;;;;;;;;;;;;7.25;93.35;100925.17;1811202;79;20597;-64
2021/12/12 02:37:37;;;;;;;;;;;;;;;7.26;93.41;100928.23;1810944;79;20149;-63
2021/12/12 02:40:07;;;;;;;;;;;;;;;7.26;93.48;100919.55;1811332;79;20180;-63
2021/12/12 02:42:36;;;;;;;;;;;;;;;7.26;93.45;100920.91;1811272;79;20181;-63
2021/12/12 02:45:07;;;;;;;;;;;;;;;7.26;93.43;100918.19;1811420;79;20217;-64
2021/12/12 02:47:35;;;;;;;;;;;;;;;7.23;93.40;100923.97;1811614;79;20455;-63
2021/12/12 02:50:17;;;;;;;;;;;;;;;7.23;93.46;100922.60;1787286;79;20145;-64
2021/12/12 02:52:58;;;;;;;;;;;;;;;7.22;93.53;100923.62;1810147;79;20272;-63
2021/12/12 02:55:29;;;;;;;;;;;;;;;7.21;93.58;100911.02;1810766;79;20219;-64
2021/12/12 02:57:58;;;;;;;;;;;;;;;7.22;93.67;100922.27;1810887;79;20248;-63
2021/12/12 03:00:30;;;;;;;;;;;;;;;7.23;93.72;100920.39;1811548;79;20236;-64
2021/12/12 03:03:00;;;;;;;;;;;;;;;7.25;93.77;100912.39;1811662;79;20212;-64
2021/12/12 03:05:32;;;;;;;;;;;;;;;7.25;93.74;100906.09;1811364;79;20150;-63
2021/12/12 03:08:00;;;;;;;;;;;;;;;7.25;93.79;100916.48;1801309;79;20191;-66
2021/12/12 03:10:31;;;;;;;;;;;;;;;7.24;93.83;100921.59;1747642;81;20208;-65
2021/12/12 03:13:01;;;;;;;;;;;;;;;7.24;93.89;100925.67;1747514;81;20216;-63
2021/12/12 03:15:31;;;;;;;;;;;;;;;7.22;93.84;100933.16;1751503;80;20199;-63
2021/12/12 03:18:02;;;;;;;;;;;;;;;7.20;93.85;100928.89;1771315;81;20306;-64
2021/12/12 03:20:35;;;;;;;;;;;;;;;7.18;93.87;100926.33;1771559;81;20476;-64
2021/12/12 03:23:10;;;;;;;;;;;;;;;7.17;93.86;100929.22;1788634;80;20606;-63
2021/12/12 03:25:39;;;;;;;;;;;;;;;7.16;93.95;100933.81;1786195;80;20475;-64
2021/12/12 03:28:08;;;;;;;;;;;;;;;7.17;94.02;100934.66;1804027;80;20181;-62
2021/12/12 03:30:37;;;;;;;;;;;;;;;7.18;94.14;100938.59;1801285;80;20169;-65
2021/12/12 03:33:05;;;;;;;;;;;;;;;7.19;94.21;100936.22;1780801;80;20231;-65
2021/12/12 03:35:33;;;;;;;;;;;;;;;7.19;94.29;100938.94;1779448;80;20191;-65
2021/12/12 03:38:02;;;;;;;;;;;;;;;7.19;94.36;100938.08;1780496;80;20148;-63
2021/12/12 03:40:34;;;;;;;;;;;;;;;7.20;94.43;100945.24;1804066;79;20181;-63
2021/12/12 03:43:03;;;;;;;;;;;;;;;7.22;94.58;100939.13;1804293;80;20162;-64
2021/12/12 03:45:33;;;;;;;;;;;;;;;7.22;94.72;100941.34;1803966;80;20146;-63
2021/12/12 03:48:04;;;;;;;;;;;;;;;7.23;94.82;100944.41;1803890;80;20224;-64
2021/12/12 03:50:35;;;;;;;;;;;;;;;7.24;94.98;100944.75;1803401;79;20245;-63
2021/12/12 03:53:03;;;;;;;;;;;;;;;7.22;95.09;100944.06;1803953;80;20196;-63
2021/12/12 03:55:32;;;;;;;;;;;;;;;7.25;95.30;100946.46;1803917;80;20162;-67
2021/12/12 03:58:00;;;;;;;;;;;;;;;7.26;95.39;100944.08;1784842;80;20183;-63
2021/12/12 04:00:32;;;;;;;;;;;;;;;7.28;95.44;100947.50;1771215;81;20190;-62
2021/12/12 04:03:00;;;;;;;;;;;;;;;7.30;95.56;100952.28;1766466;81;20191;-64
2021/12/12 04:05:29;;;;;;;;;;;;;;;7.29;95.52;100950.57;1766403;81;20135;-62
2021/12/12 04:07:57;;;;;;;;;;;;;;;7.26;95.62;100948.68;1766432;81;20198;-64
2021/12/12 04:10:26;;;;;;;;;;;;;;;7.25;95.82;100958.73;1766742;81;20198;-67
2021/12/12 04:12:54;;;;;;;;;;;;;;;7.24;95.90;100961.62;1771655;80;20158;-62
2021/12/12 04:15:23;;;;;;;;;;;;;;;7.24;95.99;100967.06;1771117;81;20167;-62
2021/12/12 04:17:51;;;;;;;;;;;;;;;7.24;96.11;100969.80;1828612;78;20144;-61
2021/12/12 04:20:29;;;;;;;;;;;;;;;7.25;96.23;100962.81;1825669;79;20183;-62
2021/12/12 04:22:57;;;;;;;;;;;;;;;7.24;96.27;100961.11;1834010;78;20148;-62
2021/12/12 04:25:25;;;;;;;;;;;;;;;7.22;96.32;100963.66;1825583;79;20153;-61
2021/12/12 04:27:54;;;;;;;;;;;;;;;7.23;96.51;100966.21;1834171;78;20547;-61
2021/12/12 04:30:25;;;;;;;;;;;;;;;7.25;96.60;100969.63;1825734;79;20149;-64
2021/12/12 04:32:53;;;;;;;;;;;;;;;7.28;96.67;100965.72;1834122;78;20148;-63
2021/12/12 04:35:25;;;;;;;;;;;;;;;7.26;96.65;100960.95;1815646;79;20151;-62
2021/12/12 04:37:55;;;;;;;;;;;;;;;7.26;96.73;100960.44;1798030;80;20155;-62
2021/12/12 04:40:28;;;;;;;;;;;;;;;7.25;96.78;100962.81;1798537;80;20146;-61
2021/12/12 04:42:56;;;;;;;;;;;;;;;7.25;96.94;100958.73;1798347;80;20229;-62
2021/12/12 04:45:57;;;;;;;;;;;;;;;7.22;96.98;100964.50;1798340;80;20238;-61
2021/12/12 04:51:22;;;;;;;;;;;;;;;7.20;97.20;100962.45;1798190;80;20246;-62
2021/12/12 04:54:23;;;;;;;;;;;;;;;7.22;97.29;100959.56;1792702;79;20183;-63
2021/12/12 04:57:01;;;;;;;;;;;;;;;7.21;97.36;100961.44;1771601;81;20155;-63
2021/12/12 04:59:51;;;;;;;;;;;;;;;7.20;97.38;100961.09;1766518;81;20150;-62
2021/12/12 05:02:32;;;;;;;;;;;;;;;7.19;97.43;100957.16;1771391;80;20226;-62
2021/12/12 05:05:07;;;;;;;;;;;;;;;7.19;97.57;100958.02;1771041;81;20521;-62
2021/12/12 05:08:00;;;;;;;;;;;;;;;7.19;97.71;100955.80;1775901;78;20166;-62
2021/12/12 05:10:38;;;;;;;;;;;;;;;7.20;97.81;100963.81;1825701;79;20145;-63
2021/12/12 05:13:16;;;;;;;;;;;;;;;7.20;97.81;100963.81;1834248;78;20168;-64
2021/12/12 05:15:48;;;;;;;;;;;;;;;7.22;97.88;100966.38;1833356;78;20580;-62
2021/12/12 05:18:22;;;;;;;;;;;;;;;7.24;97.93;100973.38;1819744;79;20192;-63
2021/12/12 05:20:52;;;;;;;;;;;;;;;7.25;97.93;100979.68;1820131;79;20184;-63
2021/12/12 05:23:22;;;;;;;;;;;;;;;7.22;97.91;100972.68;1820003;79;20184;-61
2021/12/12 05:26:02;;;;;;;;;;;;;;;7.19;97.87;100973.00;1819778;79;20208;-61
2021/12/12 05:28:34;;;;;;;;;;;;;;;7.14;97.86;100973.97;1775143;79;20151;-63
2021/12/12 05:31:04;;;;;;;;;;;;;;;7.15;97.95;100976.18;1771094;81;20207;-63
2021/12/12 05:33:33;;;;;;;;;;;;;;;7.16;97.99;100976.56;1771573;81;20143;-63
2021/12/12 05:36:01;;;;;;;;;;;;;;;7.13;97.85;100975.48;1771274;81;20151;-62
2021/12/12 05:38:29;;;;;;;;;;;;;;;7.06;97.69;100986.18;1766320;81;20210;-62
2021/12/12 05:40:58;;;;;;;;;;;;;;;7.02;97.69;100988.88;1766478;81;20179;-62
2021/12/12 05:43:27;;;;;;;;;;;;;;;6.95;97.69;100990.53;1771366;81;20199;-62
2021/12/12 05:45:56;;;;;;;;;;;;;;;6.91;97.75;100998.67;1781548;79;20157;-62
2021/12/12 05:48:25;;;;;;;;;;;;;;;6.87;97.79;101000.02;1814581;79;20153;-64
2021/12/12 05:50:53;;;;;;;;;;;;;;;6.83;97.75;100998.63;1814508;79;20236;-62
2021/12/12 05:53:22;;;;;;;;;;;;;;;6.82;97.74;101005.08;1814345;79;20137;-63
2021/12/12 05:55:50;;;;;;;;;;;;;;;6.79;97.67;101008.12;1814722;79;20212;-61
2021/12/12 05:58:20;;;;;;;;;;;;;;;6.74;97.57;101014.05;1814482;79;20141;-61
2021/12/12 06:00:56;;;;;;;;;;;;;;;6.73;97.62;101023.23;1814641;79;20177;-63
2021/12/12 06:03:27;;;;;;;;;;;;;;;6.68;97.61;101023.70;1814505;79;20218;-61
2021/12/12 06:05:57;;;;;;;;;;;;;;;6.68;97.64;101031.02;1776436;79;20473;-63
2021/12/12 06:08:26;;;;;;;;;;;;;;;6.64;97.62;101027.75;1766659;81;20551;-66
2021/12/12 06:10:54;;;;;;;;;;;;;;;6.63;97.56;101024.67;1771347;80;20155;-62
2021/12/12 06:13:23;;;;;;;;;;;;;;;6.57;97.41;101034.83;1766508;81;20151;-63
2021/12/12 06:15:53;;;;;;;;;;;;;;;6.57;97.48;101036.70;1766416;81;20218;-62
2021/12/12 06:18:24;;;;;;;;;;;;;;;6.56;97.55;101034.99;1747683;82;20152;-62
2021/12/12 06:20:53;;;;;;;;;;;;;;;6.54;97.53;101043.82;1747632;82;20147;-62
2021/12/12 06:23:21;;;;;;;;;;;;;;;6.50;97.50;101041.03;1759999;79;20455;-62
2021/12/12 06:25:49;;;;;;;;;;;;;;;6.48;97.55;101050.71;1814264;79;20217;-64
2021/12/12 06:28:21;;;;;;;;;;;;;;;6.43;97.55;101048.96;1814187;79;20150;-63
2021/12/12 06:30:50;;;;;;;;;;;;;;;6.37;97.52;101042.78;1814410;79;20569;-62
2021/12/12 06:33:18;;;;;;;;;;;;;;;6.36;97.68;101048.72;1814490;79;20169;-62
2021/12/12 06:35:46;;;;;;;;;;;;;;;6.37;97.83;101045.50;1814222;79;20193;-63
2021/12/12 06:38:16;;;;;;;;;;;;;;;6.38;97.93;101047.20;1786892;79;20210;-62
2021/12/12 06:40:44;;;;;;;;;;;;;;;6.42;97.96;101049.11;1784161;80;20453;-62
2021/12/12 06:43:14;;;;;;;;;;;;;;;6.40;97.93;101047.91;1784189;80;20223;-63
2021/12/12 06:45:43;;;;;;;;;;;;;;;6.41;98.07;101052.34;1784165;80;20152;-62
2021/12/12 06:48:12;;;;;;;;;;;;;;;6.38;97.95;101061.32;1784235;80;20179;-62
2021/12/12 06:50:42;;;;;;;;;;;;;;;6.37;97.97;101074.08;1784126;80;20182;-63
2021/12/12 06:53:12;;;;;;;;;;;;;;;6.30;97.81;101072.48;1784119;80;20187;-63
2021/12/12 06:55:44;;;;;;;;;;;;;;;6.26;97.79;101084.68;1789332;79;20273;-62
2021/12/12 06:58:12;;;;;;;;;;;;;;;6.23;97.76;101085.48;1814188;79;20157;-62
2021/12/12 07:00:41;;;;;;;;;;;;;;;6.24;97.83;101085.84;1814343;79;20188;-62
2021/12/12 07:03:11;;;;;;;;;;;;;;;6.21;97.78;101088.36;1814175;79;20212;-63
2021/12/12 07:05:40;;;;;;;;;;;;;;;6.18;97.68;101090.53;1794396;79;20188;-62
2021/12/12 07:08:08;;;;;;;;;;;;;;;6.14;97.68;101079.60;1814201;79;20256;-61
2021/12/12 07:10:39;;;;;;;;;;;;;;;6.13;97.72;101080.61;1814204;79;20483;-62
2021/12/12 07:13:09;;;;;;;;;;;;;;;6.07;97.49;101088.88;1814096;79;20184;-63
2021/12/12 07:15:42;;;;;;;;;;;;;;;6.04;97.45;101092.76;1772325;79;20144;-63
2021/12/12 07:18:14;;;;;;;;;;;;;;;6.03;97.50;101090.19;1749205;81;20179;-63
2021/12/12 07:20:43;;;;;;;;;;;;;;;5.99;97.36;101097.80;1754481;79;20218;-62
2021/12/12 07:23:11;;;;;;;;;;;;;;;5.97;97.35;101105.25;1749835;81;20235;-63
2021/12/12 07:25:40;;;;;;;;;;;;;;;5.94;97.27;101112.86;1749860;81;20176;-63
2021/12/12 07:28:08;;;;;;;;;;;;;;;5.91;97.30;101103.13;1750207;82;20196;-63
2021/12/12 07:30:37;;;;;;;;;;;;;;;5.93;97.43;101110.64;1749648;82;20160;-63
2021/12/12 07:33:05;;;;;;;;;;;;;;;5.94;97.33;101115.58;1753072;79;20203;-63
2021/12/12 07:35:36;;;;;;;;;;;;;;;5.92;97.25;101120.31;1819482;79;20538;-63
2021/12/12 07:38:09;;;;;;;;;;;;;;;5.89;97.07;101111.95;1819316;79;20218;-62
2021/12/12 07:40:38;;;;;;;;;;;;;;;5.87;97.05;101115.28;1819202;79;20156;-64
2021/12/12 07:43:07;;;;;;;;;;;;;;;5.83;96.93;101111.63;1819549;79;20476;-63
2021/12/12 07:45:35;;;;;;;;;;;;;;;5.78;96.86;101111.22;1819347;79;20525;-63
2021/12/12 07:48:05;;;;;;;;;;;;;;;5.77;96.94;101111.72;1819591;79;20141;-63
2021/12/12 07:50:35;;;;;;;;;;;;;;;5.76;96.78;101115.44;1788917;79;20195;-64
2021/12/12 07:53:08;;;;;;;;;;;;;;;5.69;96.41;101111.61;1783669;79;20176;-64
2021/12/12 07:55:38;;;;;;;;;;;;;;;5.62;96.25;101123.58;1749982;81;20454;-66
2021/12/12 07:58:07;;;;;;;;;;;;;;;5.58;96.19;101117.23;1749775;81;20454;-64
2021/12/12 08:00:37;;;;;;;;;;;;;;;5.57;96.38;101122.31;1749887;81;20517;-63
2021/12/12 08:03:05;;;;;;;;;;;;;;;5.59;96.46;101116.22;1749924;82;20462;-63
2021/12/12 08:05:36;;;;;;;;;;;;;;;5.58;96.41;101119.95;1749939;81;20147;-63
2021/12/12 08:08:07;;;;;;;;;;;;;;;5.59;96.35;101120.30;1749907;81;20239;-64
2021/12/12 08:10:35;;;;;;;;;;;;;;;5.55;96.07;101125.68;1750253;81;20204;-65
2021/12/12 08:13:05;;;;;;;;;;;;;;;5.48;95.86;101119.97;1786542;79;20191;-62
2021/12/12 08:15:33;;;;;;;;;;;;;;;5.44;95.83;101129.92;1786664;80;20194;-64
2021/12/12 08:18:02;;;;;;;;;;;;;;;5.35;95.74;101129.80;1762339;80;20164;-64
2021/12/12 08:20:32;;;;;;;;;;;;;;;5.32;95.83;101128.73;1747473;82;20212;-64
2021/12/12 08:23:00;;;;;;;;;;;;;;;5.28;95.78;101120.52;1747487;81;20206;-63
2021/12/12 08:25:29;;;;;;;;;;;;;;;5.26;95.79;101121.17;1749860;80;20188;-64
2021/12/12 08:28:00;;;;;;;;;;;;;;;5.27;95.94;101122.88;1747651;82;20144;-64
2021/12/12 08:30:29;;;;;;;;;;;;;;;5.31;96.05;101132.45;1747508;82;20191;-63
2021/12/12 08:32:58;;;;;;;;;;;;;;;5.29;95.93;101126.31;1747726;81;20494;-64
2021/12/12 08:35:27;;;;;;;;;;;;;;;5.27;95.91;101128.31;1747388;82;20207;-63
2021/12/12 08:37:56;;;;;;;;;;;;;;;5.28;95.93;101126.46;1747450;81;20176;-64
2021/12/12 08:40:27;;;;;;;;;;;;;;;5.26;95.73;101130.68;1747465;81;20497;-66
2021/12/12 08:42:56;;;;;;;;;;;;;;;5.23;95.52;101127.39;1747705;81;20311;-64
2021/12/12 08:45:30;;;;;;;;;;;;;;;5.22;95.55;101122.47;1779959;80;20451;-63
2021/12/12 08:48:00;;;;;;;;;;;;;;;5.24;95.64;101120.45;1740796;82;20202;-63
2021/12/12 08:50:31;;;;;;;;;;;;;;;5.23;95.39;101126.89;1740996;82;20448;-63
2021/12/12 08:53:03;;;;;;;;;;;;;;;5.24;95.51;101127.25;1740706;82;20327;-63
2021/12/12 08:55:37;;;;;;;;;;;;;;;5.25;95.50;101133.04;1740762;82;20182;-64
2021/12/12 08:58:15;;;;;;;;;;;;;;;5.24;95.28;101127.25;1740790;82;20154;-64
2021/12/12 09:00:47;;;;;;;;;;;;;;;5.24;95.24;101134.05;1741086;82;20330;-65
2021/12/12 09:03:20;;;;;;;;;;;;;;;5.28;95.26;101126.46;1730519;82;20181;-64
2021/12/12 09:05:48;;;;;;;;;;;;;;;5.29;95.06;101118.16;1720113;82;20506;-65
2021/12/12 09:08:41;;;;;;;;;;;;;;;5.29;94.97;101120.02;1747515;81;20148;-66
2021/12/12 09:11:34;;;;;;;;;;;;;;;5.29;94.92;101126.81;1705248;84;20522;-65
2021/12/12 09:14:19;;;;;;;;;;;;;;;5.27;94.68;101121.53;1705497;84;20189;-64
2021/12/12 09:16:53;;;;;;;;;;;;;;;5.26;94.46;101123.03;1705144;84;20188;-65
2021/12/12 09:19:28;;;;;;;;;;;;;;;5.23;94.33;101126.03;1713433;83;20496;-63
2021/12/12 09:22:00;;;;;;;;;;;;;;;5.20;94.05;101122.22;1732527;82;20248;-65
2021/12/12 09:25:11;;;;;;;;;;;;;;;5.17;94.06;101123.37;1757616;81;20221;-63
2021/12/12 09:27:44;;;;;;;;;;;;;;;5.19;94.21;101125.94;1716709;83;20228;-66
2021/12/12 09:30:17;;;;;;;;;;;;;;;5.23;94.25;101128.75;1756553;81;20185;-64
2021/12/12 09:32:49;;;;;;;;;;;;;;;5.22;94.06;101125.19;1766560;81;20141;-64
2021/12/12 09:35:27;;;;;;;;;;;;;;;5.21;94.11;101123.47;1766966;81;20158;-64
2021/12/12 09:38:14;;;;;;;;;;;;;;;5.21;94.06;101119.39;1755342;81;20304;-65
2021/12/12 09:41:20;;;;;;;;;;;;;;;5.23;94.13;101122.82;1789375;79;20474;-63
2021/12/12 09:43:54;;;;;;;;;;;;;;;5.25;94.17;101118.09;1771766;81;20189;-64
2021/12/12 09:46:57;;;;;;;;;;;;;;;5.22;93.82;101116.17;1771820;81;20153;-65
2021/12/12 09:53:14;;;;;;;;;;;;;;;5.14;93.62;101125.02;1771669;81;20552;-67
2021/12/12 09:55:48;;;;;;;;;;;;;;;5.13;93.69;101121.95;1771884;81;20465;-64
2021/12/12 09:58:26;;;;;;;;;;;;;;;5.16;93.74;101124.38;1771735;81;20157;-64
2021/12/12 10:01:00;;;;;;;;;;;;;;;5.15;93.60;101123.16;1829185;78;20518;-63
2021/12/12 10:03:32;;;;;;;;;;;;;;;5.14;93.56;101123.66;1803456;80;20151;-64
2021/12/12 10:06:15;;;;;;;;;;;;;;;5.17;93.56;101125.23;1803262;80;20545;-68
2021/12/12 10:08:58;;;;;;;;;;;;;;;5.19;93.59;101132.73;1803537;80;20155;-67
2021/12/12 10:11:55;;;;;;;;;;;;;;;5.21;93.62;101132.13;1803423;80;20484;-63
2021/12/12 10:14:31;;;;;;;;;;;;;;;5.22;93.43;101127.04;1803531;79;20500;-65
2021/12/12 10:17:11;;;;;;;;;;;;;;;5.18;93.39;101125.59;1803263;79;20187;-64
2021/12/12 10:19:45;;;;;;;;;;;;;;;5.17;93.36;101118.44;1769040;79;20573;-65
2021/12/12 10:22:37;;;;;;;;;;;;;;;5.21;93.39;101129.41;1765302;81;20283;-64
2021/12/12 10:25:17;;;;;;;;;;;;;;;5.22;93.45;101133.33;1765894;81;20469;-65
2021/12/12 10:27:54;;;;;;;;;;;;;;;5.23;93.38;101124.68;1770991;81;20179;-64
2021/12/12 10:30:25;;;;;;;;;;;;;;;5.18;93.09;101121.01;1771160;81;20270;-64
2021/12/12 10:33:06;;;;;;;;;;;;;;;5.12;93.07;101117.52;1771094;81;20155;-63
2021/12/12 10:35:41;;;;;;;;;;;;;;;5.09;93.20;101113.73;1766322;81;20172;-64
2021/12/12 10:38:15;;;;;;;;;;;;;;;5.04;92.98;101119.59;1818653;78;20486;-65
2021/12/12 10:41:04;;;;;;;;;;;;;;;5.00;93.11;101107.31;1825347;79;20172;-64
2021/12/12 10:43:40;;;;;;;;;;;;;;;5.00;93.09;101110.02;1825226;79;20188;-64
2021/12/12 10:46:11;;;;;;;;;;;;;;;5.00;93.24;101108.66;1834392;78;20148;-65
2021/12/12 10:48:48;;;;;;;;;;;;;;;4.96;92.93;101114.53;1825547;79;20192;-65
2021/12/12 10:51:18;;;;;;;;;;;;;;;4.90;92.89;101117.32;1832800;78;20288;-64
2021/12/12 10:54:13;;;;;;;;;;;;;;;4.91;93.10;101107.31;1825587;79;20142;-64
2021/12/12 10:56:53;;;;;;;;;;;;;;;4.93;93.05;101106.67;1833811;78;20532;-64
2021/12/12 10:59:34;;;;;;;;;;;;;;;4.94;93.15;101111.10;1829870;78;20239;-65
2021/12/12 11:02:06;;;;;;;;;;;;;;;4.91;92.99;101114.11;1825621;79;20466;-66
2021/12/12 11:04:43;;;;;;;;;;;;;;;4.89;93.04;101102.53;1833527;78;20203;-63
2021/12/12 11:07:15;;;;;;;;;;;;;;;4.88;93.10;101102.17;1825540;79;20279;-66
2021/12/12 11:09:59;;;;;;;;;;;;;;;4.84;93.11;101102.96;1833933;78;20184;-65
2021/12/12 11:12:48;;;;;;;;;;;;;;;4.85;93.14;101095.17;1825522;79;20165;-64
2021/12/12 11:15:23;;;;;;;;;;;;;;;4.87;93.01;101104.53;1833907;78;20148;-66
2021/12/12 11:18:03;;;;;;;;;;;;;;;4.82;93.02;101109.53;1813395;78;20199;-66
2021/12/12 11:20:35;;;;;;;;;;;;;;;4.81;93.00;101103.25;1775911;81;20216;-66
2021/12/12 11:23:07;;;;;;;;;;;;;;;4.74;92.95;101093.46;1775964;81;20152;-64
2021/12/12 11:25:46;;;;;;;;;;;;;;;4.71;92.98;101092.39;1772385;81;20211;-64
2021/12/12 11:28:26;;;;;;;;;;;;;;;4.74;93.01;101083.11;1775695;81;20172;-65
2021/12/12 11:31:00;;;;;;;;;;;;;;;4.73;92.90;101084.11;1773340;81;20203;-64
2021/12/12 11:33:31;;;;;;;;;;;;;;;4.65;92.54;101075.82;1776121;81;20184;-65
2021/12/12 11:36:00;;;;;;;;;;;;;;;4.63;92.68;101073.25;1776208;79;20213;-64
2021/12/12 11:38:48;;;;;;;;;;;;;;;4.64;92.72;101075.46;1775930;81;20262;-66
2021/12/12 11:41:23;;;;;;;;;;;;;;;4.66;92.87;101074.82;1775810;81;20461;-64
2021/12/12 11:44:12;;;;;;;;;;;;;;;4.66;92.89;101080.25;1807774;79;20181;-64
2021/12/12 11:47:10;;;;;;;;;;;;;;;4.63;92.88;101078.68;1809950;79;20242;-66
2021/12/12 11:49:51;;;;;;;;;;;;;;;4.65;92.96;101071.75;1810830;79;20161;-65
2021/12/12 11:52:23;;;;;;;;;;;;;;;4.62;92.78;101075.61;1810869;79;20463;-64
2021/12/12 11:54:57;;;;;;;;;;;;;;;4.60;92.78;101072.17;1804585;79;20228;-64
2021/12/12 11:57:28;;;;;;;;;;;;;;;4.55;92.53;101072.22;1811008;79;20157;-65
2021/12/12 12:00:05;;;;;;;;;;;;;;;4.49;92.49;101079.07;1811215;79;20154;-65
2021/12/12 12:03:00;;;;;;;;;;;;;;;4.48;92.65;101070.58;1811191;79;20185;-67
2021/12/12 12:05:49;;;;;;;;;;;;;;;4.48;92.77;101065.14;1745194;82;20178;-65
2021/12/12 12:08:25;;;;;;;;;;;;;;;4.49;92.77;101061.44;1745140;82;20178;-64
2021/12/12 12:11:13;;;;;;;;;;;;;;;4.51;92.67;101060.79;1732416;81;20162;-64
2021/12/12 12:13:52;;;;;;;;;;;;;;;4.45;92.33;101064.93;1735750;81;20508;-65
2021/12/12 12:16:48;;;;;;;;;;;;;;;4.44;92.44;101063.22;1745088;82;20314;-64
2021/12/12 12:19:47;;;;;;;;;;;;;;;4.48;92.57;101063.79;1745241;82;20202;-65
2021/12/12 12:22:43;;;;;;;;;;;;;;;4.52;92.57;101065.72;1744011;82;20186;-66
2021/12/12 12:25:24;;;;;;;;;;;;;;;4.57;92.39;101060.75;1745343;82;20147;-65
2021/12/12 12:27:56;;;;;;;;;;;;;;;4.53;92.10;101061.50;1721570;82;20154;-65
2021/12/12 12:30:47;;;;;;;;;;;;;;;4.48;91.65;101057.50;1715535;84;20148;-65
2021/12/12 12:33:52;;;;;;;;;;;;;;;4.42;91.52;101071.14;1683972;85;20481;-64
2021/12/12 12:36:44;;;;;;;;;;;;;;;4.41;91.61;101066.71;1691050;83;20479;-67
2021/12/12 12:39:35;;;;;;;;;;;;;;;4.39;91.61;101064.14;1683675;85;20195;-65
2021/12/12 12:42:42;;;;;;;;;;;;;;;4.39;91.52;101064.64;1697667;83;20226;-65
2021/12/12 12:45:50;;;;;;;;;;;;;;;4.36;91.45;101068.99;1736609;83;20182;-67
2021/12/12 12:48:58;;;;;;;;;;;;;;;4.35;91.50;101068.14;1704817;83;20162;-65
2021/12/12 12:51:38;;;;;;;;;;;;;;;4.32;91.32;101068.91;1694014;85;20261;-64
2021/12/12 12:54:28;;;;;;;;;;;;;;;4.36;91.56;101073.06;1693928;85;20210;-65
2021/12/12 12:57:22;;;;;;;;;;;;;;;4.41;91.73;101073.50;1712098;84;20567;-64
2021/12/12 12:59:55;;;;;;;;;;;;;;;4.43;91.67;101067.43;1707811;84;20545;-66
2021/12/12 13:02:30;;;;;;;;;;;;;;;4.41;91.42;101069.42;1689551;84;20472;-65
2021/12/12 13:05:09;;;;;;;;;;;;;;;4.38;91.36;101069.21;1683436;85;20186;-64
2021/12/12 13:08:00;;;;;;;;;;;;;;;4.31;90.94;101075.34;1657202;84;20191;-65
2021/12/12 13:10:29;;;;;;;;;;;;;;;4.24;91.08;101068.27;1683531;85;20291;-65
2021/12/12 13:13:22;;;;;;;;;;;;;;;4.25;91.11;101066.41;1715618;83;20183;-65
2021/12/12 13:16:06;;;;;;;;;;;;;;;4.26;91.17;101064.91;1690530;83;20477;-65
2021/12/12 13:18:46;;;;;;;;;;;;;;;4.26;91.19;101065.41;1719667;83;20220;-65
2021/12/12 13:21:24;;;;;;;;;;;;;;;4.27;91.27;101063.06;1691276;83;20479;-66
2021/12/12 13:24:17;;;;;;;;;;;;;;;4.30;91.25;101068.20;1683963;85;20536;-65
2021/12/12 13:27:21;;;;;;;;;;;;;;;4.31;91.27;101069.41;1691052;85;20161;-65
2021/12/12 13:30:05;;;;;;;;;;;;;;;4.34;91.05;101076.41;1683011;84;20536;-65
2021/12/12 13:32:59;;;;;;;;;;;;;;;4.25;90.60;101065.91;1691031;83;20169;-66
2021/12/12 13:35:34;;;;;;;;;;;;;;;4.18;90.61;101065.26;1683562;85;20275;-65
2021/12/12 13:38:12;;;;;;;;;;;;;;;4.12;90.75;101072.10;1691013;85;20552;-64
2021/12/12 13:41:09;;;;;;;;;;;;;;;4.07;90.80;101075.73;1683465;85;20511;-65
2021/12/12 13:44:00;;;;;;;;;;;;;;;4.04;90.96;101075.51;1679566;85;20496;-64
2021/12/12 13:46:54;;;;;;;;;;;;;;;3.98;90.85;101073.36;1690977;85;20193;-65
2021/12/12 13:49:26;;;;;;;;;;;;;;;3.96;91.08;101071.28;1691030;85;20229;-64